Terminal Aerodrome Forecast
Issued by NWS Lake Charles, LA

Current Version | Previous Version | Text Only | Print | Product List | Glossary On
Versions: 1 2 3 4 5 6 7 8 9 10 11 12 13 14 15 16
000
FTUS44 KLCH 241126
TAFBPT
TAF
KBPT 241126Z 2412/2512 VRB04KT P6SM VCTS SCT015CB BKN035
      TEMPO 2412/2415 2SM TSRA BKN009 OVC015CB
     FM241500 19007KT P6SM VCTS SCT025CB BKN040
      TEMPO 2419/2423 2SM TSRA BKN025CB
     FM250100 VRB04KT P6SM VCTS SCT025CB BKN200=

USA.gov is the U.S. government's official web portal to all federal, state and local government web resources and services.